createdAt,value
2022-10-25T00:01:54.965Z,101233.28
2022-10-25T00:06:52.629Z,101237.13
2022-10-25T00:09:18.978Z,101228.53
2022-10-25T00:11:45.316Z,101231.09
2022-10-25T00:14:16.583Z,101225.00
2022-10-25T00:16:42.995Z,101228.06
2022-10-25T00:19:11.808Z,101223.16
2022-10-25T00:21:38.178Z,101221.81
2022-10-25T00:24:04.883Z,101227.41
2022-10-25T00:26:31.241Z,101227.69
2022-10-25T00:28:57.668Z,101222.31
2022-10-25T00:31:24.520Z,101230.91
2022-10-25T00:33:50.879Z,101229.72
2022-10-25T00:36:21.310Z,101210.41
2022-10-25T00:38:48.347Z,101237.31
2022-10-25T00:41:17.758Z,101237.13
2022-10-25T00:43:50.126Z,101234.13
2022-10-25T00:46:28.423Z,101241.34
2022-10-25T00:49:03.989Z,101234.28
2022-10-25T00:51:58.974Z,101244.19
2022-10-25T00:54:31.938Z,101242.50
2022-10-25T00:57:02.097Z,101256.66
2022-10-25T00:59:29.031Z,101261.50
2022-10-25T01:01:56.455Z,101253.56
2022-10-25T01:04:28.853Z,101258.13
2022-10-25T01:06:55.547Z,101252.56
2022-10-25T01:09:26.445Z,101253.53
2022-10-25T01:11:53.232Z,101274.38
2022-10-25T01:14:21.181Z,101247.63
2022-10-25T01:17:12.183Z,101265.09
2022-10-25T01:19:53.842Z,101273.97
2022-10-25T01:22:37.383Z,101270.94
2022-10-25T01:25:15.970Z,101276.78
2022-10-25T01:30:43.462Z,101265.97
2022-10-25T01:33:18.690Z,101262.75
2022-10-25T01:36:01.033Z,101266.28
2022-10-25T01:38:47.718Z,101251.75
2022-10-25T01:41:38.772Z,101255.94
2022-10-25T01:44:30.348Z,101254.47
2022-10-25T01:47:00.094Z,101254.75
2022-10-25T01:49:37.349Z,101258.09
2022-10-25T01:52:03.878Z,101272.63
2022-10-25T01:54:30.312Z,101264.00
2022-10-25T01:57:11.838Z,101269.38
2022-10-25T02:00:08.679Z,101264.00
2022-10-25T02:03:06.023Z,101261.31
2022-10-25T02:05:51.386Z,101271.25
2022-10-25T02:08:42.782Z,101262.78
2022-10-25T02:11:16.568Z,101244.84
2022-10-25T02:14:01.224Z,101273.09
2022-10-25T02:16:32.315Z,101272.41
2022-10-25T02:19:02.284Z,101282.56
2022-10-25T02:21:32.572Z,101256.66
2022-10-25T02:24:03.349Z,101279.19
2022-10-25T02:26:29.898Z,101270.44
2022-10-25T02:28:57.324Z,101271.81
2022-10-25T02:31:25.860Z,101266.59
2022-10-25T02:33:52.285Z,101273.84
2022-10-25T02:36:22.067Z,101269.50
2022-10-25T02:38:50.299Z,101263.25
2022-10-25T02:41:17.354Z,101277.06
2022-10-25T02:43:43.982Z,101279.59
2022-10-25T02:46:13.811Z,101272.34
2022-10-25T02:48:40.710Z,101273.53
2022-10-25T02:51:08.590Z,101277.56
2022-10-25T02:53:35.230Z,101278.59
2022-10-25T02:56:12.223Z,101280.75
2022-10-25T02:58:40.899Z,101283.44
2022-10-25T03:01:08.105Z,101262.91
2022-10-25T03:03:35.315Z,101285.66
2022-10-25T03:06:01.722Z,101295.75
2022-10-25T03:11:00.579Z,101297.38
2022-10-25T03:13:27.141Z,101308.69
2022-10-25T03:15:53.486Z,101301.59
2022-10-25T03:18:19.883Z,101289.22
2022-10-25T03:20:46.270Z,101304.47
2022-10-25T03:23:12.731Z,101306.63
2022-10-25T03:25:39.168Z,101313.38
2022-10-25T03:28:05.635Z,101317.06
2022-10-25T03:30:32.180Z,101319.94
2022-10-25T03:32:58.855Z,101310.03
2022-10-25T03:35:26.441Z,101325.03
2022-10-25T03:37:53.695Z,101323.16
2022-10-25T03:40:20.659Z,101309.91
2022-10-25T03:42:47.157Z,101308.41
2022-10-25T03:45:13.530Z,101331.25
2022-10-25T03:47:40.356Z,101312.63
2022-10-25T03:50:07.926Z,101332.94
2022-10-25T03:52:34.349Z,101332.44
2022-10-25T03:55:00.726Z,101323.41
2022-10-25T03:57:27.084Z,101336.19
2022-10-25T03:59:53.462Z,101334.19
2022-10-25T04:02:19.852Z,101345.13
2022-10-25T04:04:46.201Z,101329.19
2022-10-25T04:07:12.608Z,101342.28
2022-10-25T04:09:38.950Z,101354.06
2022-10-25T04:12:05.544Z,101355.94
2022-10-25T04:14:32.037Z,101347.22
2022-10-25T04:16:58.490Z,101359.63
2022-10-25T04:19:24.843Z,101374.25
2022-10-25T04:21:51.244Z,101369.25
2022-10-25T04:24:17.669Z,101373.63
2022-10-25T04:26:44.062Z,101365.56
2022-10-25T04:29:11.574Z,101366.41
2022-10-25T04:31:38.067Z,101349.94
2022-10-25T04:34:04.611Z,101372.63
2022-10-25T04:36:31.436Z,101381.09
2022-10-25T04:38:57.860Z,101348.44
2022-10-25T04:41:24.439Z,101372.69
2022-10-25T04:43:52.179Z,101381.09
2022-10-25T04:46:20.120Z,101383.63
2022-10-25T04:48:46.757Z,101380.25
2022-10-25T04:51:15.387Z,101389.19
2022-10-25T04:53:41.936Z,101386.84
2022-10-25T04:56:11.039Z,101364.44
2022-10-25T04:58:37.486Z,101390.53
2022-10-25T05:01:07.324Z,101384.84
2022-10-25T05:03:34.262Z,101399.63
2022-10-25T05:06:21.162Z,101399.47
2022-10-25T05:08:49.279Z,101393.44
2022-10-25T05:11:17.823Z,101395.94
2022-10-25T05:13:45.065Z,101402.34
2022-10-25T05:16:24.328Z,101396.94
2022-10-25T05:18:54.310Z,101399.97
2022-10-25T05:21:21.769Z,101392.06
2022-10-25T05:23:48.199Z,101404.69
2022-10-25T05:26:17.582Z,101402.69
2022-10-25T05:28:45.980Z,101412.75
2022-10-25T05:31:17.065Z,101408.06
2022-10-25T05:33:45.013Z,101411.94
2022-10-25T05:36:13.303Z,101416.81
2022-10-25T05:38:40.655Z,101423.69
2022-10-25T05:41:08.061Z,101410.06
2022-10-25T05:43:34.509Z,101423.38
2022-10-25T05:46:04.076Z,101432.63
2022-10-25T05:48:31.157Z,101425.88
2022-10-25T05:51:28.810Z,101434.81
2022-10-25T05:54:00.196Z,101436.66
2022-10-25T05:56:28.871Z,101435.97
2022-10-25T05:58:58.400Z,101412.44
2022-10-25T06:01:26.682Z,101438.19
2022-10-25T06:03:54.864Z,101438.34
2022-10-25T06:06:22.691Z,101447.09
2022-10-25T06:08:49.095Z,101446.94
2022-10-25T06:11:18.307Z,101422.88
2022-10-25T06:13:45.013Z,101438.69
2022-10-25T06:16:13.694Z,101453.81
2022-10-25T06:18:40.340Z,101449.13
2022-10-25T06:21:15.344Z,101456.00
2022-10-25T06:23:42.900Z,101463.41
2022-10-25T06:26:12.013Z,101454.16
2022-10-25T06:28:39.237Z,101474.03
2022-10-25T06:31:11.499Z,101475.34
2022-10-25T06:33:38.920Z,101478.72
2022-10-25T06:36:12.801Z,101486.97
2022-10-25T06:38:39.795Z,101485.28
2022-10-25T06:41:09.641Z,101491.38
2022-10-25T06:43:36.012Z,101494.22
2022-10-25T06:46:21.846Z,101491.53
2022-10-25T06:48:48.672Z,101491.19
2022-10-25T06:51:15.393Z,101501.47
2022-10-25T06:53:41.794Z,101512.09
2022-10-25T06:56:14.477Z,101512.88
2022-10-25T06:58:41.483Z,101500.94
2022-10-25T07:01:11.789Z,101513.56
2022-10-25T07:03:38.843Z,101503.31
2022-10-25T07:06:10.623Z,101522.47
2022-10-25T07:08:38.794Z,101529.38
2022-10-25T07:11:05.860Z,101516.75
2022-10-25T07:13:33.651Z,101530.56
2022-10-25T07:16:04.750Z,101534.03
2022-10-25T07:18:31.855Z,101518.41
2022-10-25T07:20:59.730Z,101545.69
2022-10-25T07:23:27.159Z,101539.28
2022-10-25T07:25:53.500Z,101545.34
2022-10-25T07:28:19.854Z,101537.22
2022-10-25T07:30:47.282Z,101541.59
2022-10-25T07:33:15.124Z,101538.22
2022-10-25T07:35:58.685Z,101539.06
2022-10-25T07:38:32.214Z,101549.69
2022-10-25T07:40:59.286Z,101551.16
2022-10-25T07:43:27.136Z,101552.31
2022-10-25T07:45:53.828Z,101544.44
2022-10-25T07:48:20.464Z,101554.19
2022-10-25T07:50:46.863Z,101565.50
2022-10-25T07:53:13.235Z,101564.50
2022-10-25T07:55:39.780Z,101580.69
2022-10-25T07:58:08.146Z,101549.34
2022-10-25T08:00:35.850Z,101570.53
2022-10-25T08:03:02.569Z,101573.53
2022-10-25T08:05:28.977Z,101575.91
2022-10-25T08:07:55.367Z,101571.13
2022-10-25T08:10:21.834Z,101572.09
2022-10-25T08:12:49.175Z,101581.19
2022-10-25T08:15:16.245Z,101583.47
2022-10-25T08:17:42.624Z,101575.41
2022-10-25T08:20:09.442Z,101574.16
2022-10-25T08:22:35.829Z,101569.28
2022-10-25T08:25:04.985Z,101571.34
2022-10-25T08:27:32.110Z,101579.63
2022-10-25T08:29:58.558Z,101581.47
2022-10-25T08:32:25.035Z,101582.63
2022-10-25T08:34:51.382Z,101594.69
2022-10-25T08:37:17.899Z,101594.44
2022-10-25T08:39:44.918Z,101587.03
2022-10-25T08:42:22.523Z,101582.06
2022-10-25T08:45:05.697Z,101566.38
2022-10-25T08:47:40.711Z,101543.44
2022-10-25T08:50:15.177Z,101562.47
2022-10-25T08:52:54.516Z,101581.22
2022-10-25T08:55:35.224Z,101583.66
2022-10-25T08:58:06.910Z,101575.56
2022-10-25T09:00:39.305Z,101561.22
2022-10-25T09:03:15.555Z,101562.06
2022-10-25T09:05:51.965Z,101551.53
2022-10-25T09:08:24.208Z,101562.28
2022-10-25T09:10:59.046Z,101543.44
2022-10-25T09:13:40.622Z,101561.22
2022-10-25T09:16:18.162Z,101565.31
2022-10-25T09:18:54.908Z,101578.41
2022-10-25T09:21:26.212Z,101562.19
2022-10-25T09:24:09.207Z,101587.91
2022-10-25T09:26:44.880Z,101592.84
2022-10-25T09:29:24.566Z,101603.28
2022-10-25T09:31:59.569Z,101593.38
2022-10-25T09:34:30.675Z,101607.25
2022-10-25T09:37:06.259Z,101603.53
2022-10-25T09:39:46.886Z,101603.97
2022-10-25T09:42:27.685Z,101605.56
2022-10-25T09:44:59.505Z,101610.84
2022-10-25T09:48:00.169Z,101603.16
2022-10-25T09:50:37.173Z,101621.69
2022-10-25T09:53:20.325Z,101627.38
2022-10-25T09:56:01.574Z,101627.50
2022-10-25T09:58:48.922Z,101611.16
2022-10-25T10:01:19.991Z,101632.47
2022-10-25T10:03:48.927Z,101631.78
2022-10-25T10:06:28.279Z,101636.22
2022-10-25T10:09:02.468Z,101603.22
2022-10-25T10:11:29.839Z,101626.72
2022-10-25T10:14:11.046Z,101627.06
2022-10-25T10:16:47.822Z,101627.22
2022-10-25T10:19:18.292Z,101634.63
2022-10-25T10:21:47.089Z,101629.06
2022-10-25T10:24:21.461Z,101640.50
2022-10-25T10:26:54.186Z,101614.19
2022-10-25T10:29:22.770Z,101614.44
2022-10-25T10:31:55.182Z,101627.91
2022-10-25T10:34:32.772Z,101639.00
2022-10-25T10:37:03.819Z,101640.47
2022-10-25T10:39:30.240Z,101636.28
2022-10-25T10:42:03.406Z,101628.94
2022-10-25T10:44:34.332Z,101626.66
2022-10-25T10:47:09.771Z,101619.91
2022-10-25T10:49:40.797Z,101627.91
2022-10-25T10:52:32.261Z,101632.91
2022-10-25T10:54:59.642Z,101633.16
2022-10-25T10:57:32.818Z,101635.78
2022-10-25T11:00:00.902Z,101635.59
2022-10-25T11:02:41.603Z,101624.53
2022-10-25T11:05:26.540Z,101627.88
2022-10-25T11:07:58.199Z,101632.66
2022-10-25T11:10:26.246Z,101629.78
2022-10-25T11:13:10.220Z,101642.56
2022-10-25T11:16:02.454Z,101642.41
2022-10-25T11:18:43.856Z,101656.09
2022-10-25T11:21:26.891Z,101652.19
2022-10-25T11:24:08.434Z,101657.56
2022-10-25T11:26:46.060Z,101658.50
2022-10-25T11:29:39.302Z,101659.53
2022-10-25T11:32:27.855Z,101666.09
2022-10-25T11:35:20.469Z,101677.38
2022-10-25T11:38:02.816Z,101684.75
2022-10-25T11:40:52.551Z,101671.75
2022-10-25T11:43:50.435Z,101682.09
2022-10-25T11:46:41.268Z,101681.91
2022-10-25T11:49:28.234Z,101690.25
2022-10-25T11:52:12.640Z,101688.41
2022-10-25T11:54:43.653Z,101688.75
2022-10-25T11:57:26.976Z,101690.94
2022-10-25T12:00:11.645Z,101689.06
2022-10-25T12:03:16.225Z,101696.09
2022-10-25T12:05:54.671Z,101695.25
2022-10-25T12:09:00.692Z,101673.72
2022-10-25T12:11:33.860Z,101693.38
2022-10-25T12:14:05.081Z,101691.72
2022-10-25T12:16:34.057Z,101682.47
2022-10-25T12:19:23.016Z,101693.25
2022-10-25T12:22:30.267Z,101693.72
2022-10-25T12:25:05.093Z,101690.06
2022-10-25T12:27:33.914Z,101663.97
2022-10-25T12:30:15.011Z,101687.53
2022-10-25T12:32:52.467Z,101693.56
2022-10-25T12:35:32.294Z,101705.47
2022-10-25T12:38:07.916Z,101689.38
2022-10-25T12:40:41.641Z,101692.84
2022-10-25T12:43:23.635Z,101697.66
2022-10-25T12:46:06.578Z,101698.06
2022-10-25T12:48:53.376Z,101700.56
2022-10-25T12:51:48.434Z,101704.84
2022-10-25T12:55:02.811Z,101711.47
2022-10-25T12:57:37.379Z,101715.22
2022-10-25T13:00:15.844Z,101711.97
2022-10-25T13:03:08.432Z,101715.44
2022-10-25T13:06:01.735Z,101702.31
2022-10-25T13:08:29.602Z,101710.16
2022-10-25T13:11:02.796Z,101689.75
2022-10-25T13:13:37.953Z,101723.47
2022-10-25T13:16:06.181Z,101675.41
2022-10-25T13:18:32.533Z,101718.56
2022-10-25T13:21:01.205Z,101721.16
2022-10-25T13:23:42.822Z,101726.69
2022-10-25T13:26:15.584Z,101702.59
2022-10-25T13:28:52.535Z,101683.34
2022-10-25T13:31:34.067Z,101722.72
2022-10-25T13:34:12.606Z,101718.88
2022-10-25T13:36:49.310Z,101684.34
2022-10-25T13:39:39.135Z,101721.63
2022-10-25T13:42:14.762Z,101726.53
2022-10-25T13:44:55.673Z,101733.66
2022-10-25T13:47:41.423Z,101737.72
2022-10-25T13:50:38.376Z,101736.13
2022-10-25T13:53:19.151Z,101738.94
2022-10-25T13:56:07.561Z,101706.13
2022-10-25T13:58:33.918Z,101735.13
2022-10-25T14:01:15.405Z,101727.88
2022-10-25T14:04:05.931Z,101735.03
2022-10-25T14:06:43.594Z,101736.72
2022-10-25T14:09:09.965Z,101733.38
2022-10-25T14:11:41.050Z,101719.72
2022-10-25T14:14:15.689Z,101701.31
2022-10-25T14:16:53.454Z,101737.66
2022-10-25T14:19:37.965Z,101730.44
2022-10-25T14:22:13.727Z,101734.13
2022-10-25T14:24:42.208Z,101730.88
2022-10-25T14:27:26.531Z,101719.66
2022-10-25T14:29:52.888Z,101730.50
2022-10-25T14:32:21.807Z,101733.63
2022-10-25T14:34:53.057Z,101729.31
2022-10-25T14:37:19.740Z,101734.00
2022-10-25T14:39:53.320Z,101727.53
2022-10-25T14:42:19.845Z,101736.03
2022-10-25T14:44:49.353Z,101733.50
2022-10-25T14:47:31.031Z,101735.50
2022-10-25T14:49:58.713Z,101731.34
2022-10-25T14:52:30.739Z,101739.78
2022-10-25T14:55:06.079Z,101729.88
2022-10-25T14:57:34.562Z,101701.59
2022-10-25T15:00:03.352Z,101725.94
2022-10-25T15:02:39.814Z,101726.78
2022-10-25T15:05:06.993Z,101728.38
2022-10-25T15:07:39.246Z,101726.28
2022-10-25T15:12:37.573Z,101727.38
2022-10-25T15:15:32.300Z,101731.63
2022-10-25T15:17:58.649Z,101735.63
2022-10-25T15:20:33.006Z,101700.88
2022-10-25T15:23:05.832Z,101733.72
2022-10-25T15:25:37.267Z,101734.78
2022-10-25T15:28:12.642Z,101733.94
2022-10-25T15:30:43.858Z,101737.28
2022-10-25T15:33:17.215Z,101713.44
2022-10-25T15:35:52.189Z,101734.66
2022-10-25T15:38:19.310Z,101737.41
2022-10-25T15:40:47.263Z,101698.53
2022-10-25T15:43:13.869Z,101729.75
2022-10-25T15:45:40.724Z,101733.94
2022-10-25T15:48:14.067Z,101721.13
2022-10-25T15:50:45.444Z,101727.44
2022-10-25T15:53:14.083Z,101736.69
2022-10-25T15:55:41.449Z,101728.50
2022-10-25T15:58:09.909Z,101730.38
2022-10-25T16:00:37.978Z,101728.28
2022-10-25T16:03:05.011Z,101732.19
2022-10-25T16:05:33.841Z,101711.97
2022-10-25T16:08:00.677Z,101736.19
2022-10-25T16:10:28.614Z,101738.22
2022-10-25T16:13:01.432Z,101737.25
2022-10-25T16:15:28.861Z,101729.19
2022-10-25T16:17:55.203Z,101746.94
2022-10-25T16:20:24.924Z,101744.09
2022-10-25T16:22:51.971Z,101744.09
2022-10-25T16:25:19.883Z,101741.47
2022-10-25T16:27:47.396Z,101747.94
2022-10-25T16:30:25.620Z,101749.28
2022-10-25T16:32:52.766Z,101735.00
2022-10-25T16:35:24.018Z,101757.75
2022-10-25T16:37:51.583Z,101739.53
2022-10-25T16:40:19.514Z,101748.47
2022-10-25T16:42:47.040Z,101756.25
2022-10-25T16:45:24.961Z,101761.81
2022-10-25T16:47:52.303Z,101754.78
2022-10-25T16:50:23.081Z,101761.81
2022-10-25T16:52:54.744Z,101765.91
2022-10-25T16:55:21.111Z,101760.16
2022-10-25T17:00:15.627Z,101769.94
2022-10-25T17:02:42.049Z,101768.75
2022-10-25T17:05:19.445Z,101761.34
2022-10-25T17:07:46.222Z,101762.88
2022-10-25T17:10:17.084Z,101760.00
2022-10-25T17:12:53.405Z,101765.41
2022-10-25T17:15:21.265Z,101771.16
2022-10-25T17:17:47.907Z,101774.53
2022-10-25T17:20:17.072Z,101765.22
2022-10-25T17:22:44.012Z,101745.97
2022-10-25T17:25:11.313Z,101764.88
2022-10-25T17:27:40.437Z,101765.22
2022-10-25T17:30:09.005Z,101765.41
2022-10-25T17:32:35.850Z,101768.78
2022-10-25T17:35:02.327Z,101738.38
2022-10-25T17:37:29.171Z,101752.75
2022-10-25T17:39:55.564Z,101773.00
2022-10-25T17:42:21.951Z,101775.69
2022-10-25T17:44:48.346Z,101741.25
2022-10-25T17:47:14.954Z,101779.75
2022-10-25T17:49:42.443Z,101768.63
2022-10-25T17:52:09.716Z,101792.22
2022-10-25T17:54:38.422Z,101796.56
2022-10-25T17:57:05.894Z,101789.97
2022-10-25T17:59:33.462Z,101791.16
2022-10-25T18:01:59.912Z,101792.16
2022-10-25T18:04:26.356Z,101794.66
2022-10-25T18:06:52.766Z,101795.13
2022-10-25T18:09:19.338Z,101800.34
2022-10-25T18:11:45.748Z,101802.91
2022-10-25T18:14:12.104Z,101808.66
2022-10-25T18:16:38.493Z,101810.16
2022-10-25T18:19:06.039Z,101804.44
2022-10-25T18:21:33.670Z,101808.31
2022-10-25T18:24:02.183Z,101802.44
2022-10-25T18:26:28.682Z,101811.53
2022-10-25T18:28:57.200Z,101810.19
2022-10-25T18:31:23.587Z,101780.78
2022-10-25T18:33:49.997Z,101808.28
2022-10-25T18:36:19.224Z,101813.72
2022-10-25T18:38:46.891Z,101812.72
2022-10-25T18:41:15.463Z,101790.25
2022-10-25T18:43:42.168Z,101763.44
2022-10-25T18:46:08.715Z,101816.38
2022-10-25T18:48:35.215Z,101779.94
2022-10-25T18:51:06.700Z,101777.91
2022-10-25T18:53:35.455Z,101810.63
2022-10-25T18:56:02.518Z,101805.22
2022-10-25T18:58:32.082Z,101805.75
2022-10-25T19:01:06.447Z,101805.53
2022-10-25T19:03:32.935Z,101806.72
2022-10-25T19:05:59.292Z,101800.09
2022-10-25T19:08:25.647Z,101805.16
2022-10-25T19:10:52.011Z,101797.38
2022-10-25T19:13:21.315Z,101806.13
2022-10-25T19:15:47.990Z,101802.38
2022-10-25T19:18:15.744Z,101799.66
2022-10-25T19:20:46.285Z,101797.78
2022-10-25T19:23:13.076Z,101809.25
2022-10-25T19:25:39.505Z,101800.97
2022-10-25T19:28:06.144Z,101798.13
2022-10-25T19:30:37.611Z,101781.34
2022-10-25T19:33:04.797Z,101771.53
2022-10-25T19:35:31.272Z,101788.56
2022-10-25T19:37:57.928Z,101796.63
2022-10-25T19:40:24.396Z,101797.28
2022-10-25T19:42:50.987Z,101785.69
2022-10-25T19:45:17.473Z,101799.75
2022-10-25T19:47:44.752Z,101792.94
2022-10-25T19:50:11.595Z,101798.28
2022-10-25T19:52:38.313Z,101803.25
2022-10-25T19:55:06.629Z,101776.22
2022-10-25T19:57:33.929Z,101804.94
2022-10-25T20:00:00.464Z,101803.59
2022-10-25T20:02:26.964Z,101803.59
2022-10-25T20:04:53.408Z,101803.72
2022-10-25T20:07:19.779Z,101793.75
2022-10-25T20:09:46.126Z,101795.44
2022-10-25T20:12:12.461Z,101798.09
2022-10-25T20:14:38.867Z,101808.06
2022-10-25T20:17:05.928Z,101797.47
2022-10-25T20:19:32.634Z,101793.16
2022-10-25T20:21:59.301Z,101795.00
2022-10-25T20:24:26.250Z,101802.22
2022-10-25T20:26:53.222Z,101795.06
2022-10-25T20:29:25.433Z,101807.63
2022-10-25T20:31:52.579Z,101776.97
2022-10-25T20:34:19.806Z,101811.56
2022-10-25T20:36:47.131Z,101801.94
2022-10-25T20:39:13.982Z,101807.84
2022-10-25T20:41:40.529Z,101801.41
2022-10-25T20:44:08.655Z,101806.22
2022-10-25T20:46:35.431Z,101815.66
2022-10-25T20:49:03.279Z,101812.84
2022-10-25T20:51:29.664Z,101816.69
2022-10-25T20:53:56.940Z,101791.09
2022-10-25T20:56:24.028Z,101812.84
2022-10-25T20:58:50.778Z,101780.94
2022-10-25T21:01:17.919Z,101816.59
2022-10-25T21:03:44.463Z,101820.13
2022-10-25T21:06:12.290Z,101822.75
2022-10-25T21:08:39.083Z,101815.66
2022-10-25T21:11:09.210Z,101827.97
2022-10-25T21:13:36.219Z,101830.19
2022-10-25T21:16:20.833Z,101828.19
2022-10-25T21:18:47.198Z,101820.88
2022-10-25T21:21:19.889Z,101811.41
2022-10-25T21:23:47.539Z,101820.75
2022-10-25T21:26:13.896Z,101831.22
2022-10-25T21:28:41.451Z,101827.41
2022-10-25T21:31:10.776Z,101826.31
2022-10-25T21:33:37.655Z,101818.56
2022-10-25T21:36:09.951Z,101822.69
2022-10-25T21:38:36.629Z,101823.19
2022-10-25T21:41:06.091Z,101825.41
2022-10-25T21:43:32.573Z,101830.38
2022-10-25T21:45:58.936Z,101830.53
2022-10-25T21:48:25.416Z,101823.91
2022-10-25T21:50:55.389Z,101823.66
2022-10-25T21:53:22.368Z,101820.38
2022-10-25T21:55:50.225Z,101829.81
2022-10-25T21:58:17.672Z,101827.13
2022-10-25T22:00:44.053Z,101830.94
2022-10-25T22:03:10.395Z,101817.66
2022-10-25T22:05:42.811Z,101828.53
2022-10-25T22:08:09.163Z,101830.22
2022-10-25T22:10:35.506Z,101825.44
2022-10-25T22:13:01.952Z,101824.19
2022-10-25T22:15:28.298Z,101828.69
2022-10-25T22:17:54.697Z,101821.63
2022-10-25T22:20:21.115Z,101823.06
2022-10-25T22:22:47.738Z,101792.16
2022-10-25T22:25:14.252Z,101789.63
2022-10-25T22:27:40.650Z,101817.66
2022-10-25T22:30:07.754Z,101814.56
2022-10-25T22:32:34.428Z,101819.53
2022-10-25T22:35:00.768Z,101811.34
2022-10-25T22:37:27.148Z,101822.47
2022-10-25T22:39:53.497Z,101818.97
2022-10-25T22:42:19.840Z,101819.28
2022-10-25T22:44:46.183Z,101810.56
2022-10-25T22:47:12.527Z,101819.84
2022-10-25T22:49:38.856Z,101814.94
2022-10-25T22:52:05.224Z,101824.94
2022-10-25T22:54:31.568Z,101819.28
2022-10-25T22:56:58.047Z,101816.50
2022-10-25T22:59:24.391Z,101823.69
2022-10-25T23:01:50.770Z,101793.66
2022-10-25T23:04:17.203Z,101821.00
2022-10-25T23:06:43.652Z,101804.91
2022-10-25T23:09:11.628Z,101817.03
2022-10-25T23:11:39.764Z,101822.97
2022-10-25T23:14:13.205Z,101830.94
2022-10-25T23:16:42.993Z,101821.47
2022-10-25T23:19:09.356Z,101823.88
2022-10-25T23:21:35.713Z,101787.63
2022-10-25T23:24:02.078Z,101827.81
2022-10-25T23:26:34.477Z,101794.25
2022-10-25T23:29:01.543Z,101824.44
2022-10-25T23:31:29.096Z,101829.50
2022-10-25T23:33:57.827Z,101816.66
2022-10-25T23:36:27.168Z,101822.44
2022-10-25T23:38:55.110Z,101821.63
2022-10-25T23:41:22.542Z,101822.72
2022-10-25T23:43:49.247Z,101810.06
2022-10-25T23:46:15.662Z,101830.38
2022-10-25T23:48:42.069Z,101820.22
2022-10-25T23:51:11.256Z,101826.13
2022-10-25T23:53:37.750Z,101819.66
2022-10-25T23:56:07.034Z,101809.31
2022-10-25T23:58:33.747Z,101819.94
